This is the latest recevied weather packets stored in our database for station/object KC0UFP. If no packets are shown the sender has not sent any weather packets the latest 10 day(s).
| Time | Temp. | Humidity | Pressure | Rain* | Wind** | Luminosity | Snow |
|---|---|---|---|---|---|---|---|
| 1777482823 | 17.78° C | 77% | 1016.2 hPa | 0 mm | - | 855 W/m² | - |
| 1777482518 | 17.78° C | 79% | 1016.2 hPa | 0 mm | - | 945 W/m² | - |
| 1777482216 | 18.33° C | 75% | 1016.4 hPa | 0 mm | - | 459 W/m² | - |
| 1777481913 | 17.78° C | 76% | 1016.5 hPa | 0 mm | - | 519 W/m² | - |
| 1777481611 | 18.33° C | 77% | 1016.5 hPa | 0 mm | - | 669 W/m² | - |
| 1777481307 | 17.78° C | 76% | 1016.5 hPa | 0 mm | - | 1151 W/m² | - |
| 1777481004 | 17.22° C | 77% | 1016.5 hPa | 0 mm | - | 1045 W/m² | - |
| 1777480700 | 17.22° C | 77% | 1016.7 hPa | 0 mm | - | 729 W/m² | - |
| 1777480397 | 17.22° C | 77% | 1016.6 hPa | 0 mm | - | 319 W/m² | - |
| 1777480093 | 17.22° C | 80% | 1016.4 hPa | 0 mm | - | 293 W/m² | - |
| 1777479789 | 17.22° C | 81% | 1016.4 hPa | 0 mm | - | 294 W/m² | - |
| 1777479487 | 17.22° C | 79% | 1016.7 hPa | 0 mm | - | 314 W/m² | - |
| 1777479184 | 17.22° C | 79% | 1016.7 hPa | 0 mm | - | 436 W/m² | - |
| 1777478881 | 17.22° C | 79% | 1016.9 hPa | 0 mm | - | 476 W/m² | - |
| 1777478577 | 17.22° C | 77% | 1017 hPa | 0 mm | - | 459 W/m² | - |
| 1777478274 | 17.22° C | 82% | 1016.4 hPa | 0 mm | - | 1079 W/m² | - |
| 1777477970 | 16.67° C | 83% | 1016.6 hPa | 0 mm | - | 936 W/m² | - |
| 1777477666 | 16.67° C | 84% | 1016.5 hPa | 0 mm | - | 1220 W/m² | - |
| 1777477363 | 15.56° C | 86% | 1016.4 hPa | 0 mm | - | 442 W/m² | - |
| 1777477059 | 15.56° C | 85% | 1016.4 hPa | 0 mm | - | 263 W/m² | - |
| 1777476757 | 15.56° C | 86% | 1016.5 hPa | 0 mm | - | 184 W/m² | - |
| 1777476453 | 15.56° C | 87% | 1016.2 hPa | 0 mm | - | 209 W/m² | - |
| 1777476150 | 15.56° C | 87% | 1016.5 hPa | 0 mm | - | 141 W/m² | - |
| 1777475846 | 15.56° C | 87% | 1016.2 hPa | 0 mm | - | 98 W/m² | - |
| 1777475542 | 15.56° C | 87% | 1016.3 hPa | 0 mm | - | 99 W/m² | - |
* Rain latest hour (hover to see other rain measurements)
** Current wind speed in m/s (hover to see current wind gust speed)